Time;durP1;ratioP1;P1;durP2;ratioP2;P2;SDS_P1;SDS_P2;PMS_P1;PMS_P2;Temp;Humidity;BMP_temperature;BMP_pressure;BME280_temperature;BME280_humidity;BME280_pressure;Samples;Min_cycle;Max_cycle;Signal;HPM_P1;HPM_P2
2022/11/23 00:01:22;;;;;;;25.08;20.15;;;7.40;99.90;;;;;;4959114;28;94351;-32
2022/11/23 00:03:54;;;;;;;22.85;20.50;;;7.50;99.90;;;;;;4959443;28;92078;-32
2022/11/23 00:06:21;;;;;;;22.42;19.13;;;7.50;99.90;;;;;;4958593;28;93114;-33
2022/11/23 00:08:47;;;;;;;21.80;18.98;;;7.50;99.90;;;;;;4958536;28;94840;-33
2022/11/23 00:11:13;;;;;;;25.13;20.90;;;7.50;99.90;;;;;;4959289;28;94663;-32
2022/11/23 00:13:40;;;;;;;24.75;19.85;;;7.50;99.90;;;;;;4958702;28;94399;-34
2022/11/23 00:16:06;;;;;;;23.05;20.00;;;7.40;99.90;;;;;;4958546;28;94313;-32
2022/11/23 00:18:32;;;;;;;22.17;19.42;;;7.40;99.90;;;;;;4956728;28;96555;-31
2022/11/23 00:20:57;;;;;;;21.65;19.55;;;7.50;99.90;;;;;;4957999;28;95094;-31
2022/11/23 00:23:23;;;;;;;26.65;20.10;;;7.50;99.90;;;;;;4958274;28;93192;-37
2022/11/23 00:25:49;;;;;;;22.15;18.75;;;7.60;99.90;;;;;;4957174;28;92123;-31
2022/11/23 00:28:14;;;;;;;22.40;19.45;;;7.50;99.90;;;;;;4957361;28;94311;-34
2022/11/23 00:30:40;;;;;;;24.00;20.13;;;7.50;99.90;;;;;;4956622;28;94470;-34
2022/11/23 00:33:05;;;;;;;22.73;20.23;;;7.50;99.90;;;;;;4958062;28;94222;-33
2022/11/23 00:35:31;;;;;;;22.67;19.98;;;7.50;99.90;;;;;;4956873;28;92491;-34
2022/11/23 00:37:56;;;;;;;20.35;18.40;;;7.50;99.90;;;;;;4956973;28;95316;-32
2022/11/23 00:40:22;;;;;;;24.95;19.42;;;7.50;99.90;;;;;;4957362;28;95565;-32
2022/11/23 00:42:47;;;;;;;23.52;18.27;;;7.50;99.90;;;;;;4956522;28;95375;-33
2022/11/23 00:45:13;;;;;;;27.42;19.10;;;7.60;99.90;;;;;;4957576;28;92564;-32
2022/11/23 00:47:39;;;;;;;20.50;17.63;;;7.60;99.90;;;;;;4956509;28;94856;-33
2022/11/23 00:50:05;;;;;;;19.17;17.25;;;7.60;99.90;;;;;;4956886;28;94528;-35
2022/11/23 00:52:30;;;;;;;21.10;17.50;;;7.60;99.90;;;;;;4957412;28;93168;-32
2022/11/23 00:54:56;;;;;;;18.73;16.73;;;7.60;99.90;;;;;;4957095;28;93158;-32
2022/11/23 00:57:21;;;;;;;17.85;16.08;;;7.60;99.90;;;;;;4957432;28;93965;-31
2022/11/23 00:59:47;;;;;;;20.85;18.25;;;7.60;99.90;;;;;;4956633;28;94425;-31
2022/11/23 01:02:13;;;;;;;19.27;15.75;;;7.60;99.90;;;;;;4956126;28;93175;-33
2022/11/23 01:04:39;;;;;;;18.60;16.80;;;7.60;99.90;;;;;;4956050;28;93254;-34
2022/11/23 01:07:04;;;;;;;23.85;18.05;;;7.60;99.90;;;;;;4956720;28;95783;-33
2022/11/23 01:09:30;;;;;;;25.38;19.05;;;7.70;99.90;;;;;;4956639;28;95382;-32
2022/11/23 01:11:55;;;;;;;22.20;18.00;;;7.70;99.90;;;;;;4956841;28;92492;-34
2022/11/23 01:14:22;;;;;;;20.33;17.20;;;7.70;99.90;;;;;;4917663;28;1125442;-32
2022/11/23 01:16:48;;;;;;;20.75;17.77;;;7.70;99.90;;;;;;4957200;28;95493;-34
2022/11/23 01:19:16;;;;;;;19.67;17.63;;;7.70;99.90;;;;;;4957136;28;95838;-32
2022/11/23 01:21:42;;;;;;;19.65;17.23;;;7.70;99.90;;;;;;4957977;28;93448;-33
2022/11/23 01:24:12;;;;;;;20.20;18.17;;;7.70;99.90;;;;;;4957783;28;92335;-34
2022/11/23 01:26:39;;;;;;;22.55;17.35;;;7.60;99.90;;;;;;4956778;28;94824;-35
2022/11/23 01:29:05;;;;;;;20.52;16.77;;;7.60;99.90;;;;;;4957010;28;93446;-33
2022/11/23 01:31:31;;;;;;;21.25;17.45;;;7.60;99.90;;;;;;4957642;28;94231;-34
2022/11/23 01:33:59;;;;;;;19.92;16.77;;;7.70;99.90;;;;;;4957809;28;95010;-32
2022/11/23 01:36:27;;;;;;;18.30;16.50;;;7.70;99.90;;;;;;4956983;28;94655;-32
2022/11/23 01:38:53;;;;;;;19.77;16.58;;;7.70;99.90;;;;;;4957338;28;94287;-34
2022/11/23 01:41:31;;;;;;;22.83;16.90;;;7.70;99.90;;;;;;4958044;28;93351;-32
2022/11/23 01:43:56;;;;;;;19.60;17.45;;;7.70;99.90;;;;;;4957893;28;94609;-33
2022/11/23 01:46:22;;;;;;;21.35;18.25;;;7.70;99.90;;;;;;4957430;28;93913;-31
2022/11/23 01:49:02;;;;;;;19.92;17.98;;;7.70;99.90;;;;;;4957472;28;94545;-33
2022/11/23 01:51:36;;;;;;;22.85;17.95;;;7.70;99.90;;;;;;4957377;28;93910;-32
2022/11/23 01:54:06;;;;;;;21.00;16.83;;;7.70;99.90;;;;;;4957507;28;92198;-31
2022/11/23 01:56:40;;;;;;;19.65;17.58;;;7.70;99.90;;;;;;4956716;28;96143;-33
2022/11/23 01:59:12;;;;;;;23.73;18.30;;;7.70;99.90;;;;;;4957561;28;96271;-32
2022/11/23 02:01:37;;;;;;;18.38;16.45;;;7.80;99.90;;;;;;4957072;28;94493;-36
2022/11/23 02:04:03;;;;;;;17.45;15.05;;;7.80;99.90;;;;;;4957221;28;94123;-33
2022/11/23 02:06:31;;;;;;;19.00;16.77;;;7.80;99.90;;;;;;4957122;28;95201;-32
2022/11/23 02:08:57;;;;;;;18.95;16.65;;;7.80;99.90;;;;;;4956927;28;94130;-33
2022/11/23 02:11:23;;;;;;;19.50;16.55;;;7.80;99.90;;;;;;4957456;28;93320;-32
2022/11/23 02:13:50;;;;;;;21.70;18.10;;;7.80;99.90;;;;;;4956721;28;91374;-32
2022/11/23 02:16:16;;;;;;;15.88;14.30;;;7.80;99.90;;;;;;4955895;28;95137;-35
2022/11/23 02:18:44;;;;;;;19.45;17.02;;;7.80;99.90;;;;;;4956375;28;94858;-33
2022/11/23 02:21:10;;;;;;;22.25;18.23;;;7.80;99.90;;;;;;4956519;28;93738;-32
2022/11/23 02:23:54;;;;;;;16.80;14.65;;;7.90;99.90;;;;;;4956775;28;92878;-33
2022/11/23 02:26:25;;;;;;;17.48;15.13;;;7.90;99.90;;;;;;4943740;28;94610;-33
2022/11/23 02:29:01;;;;;;;19.50;15.48;;;7.90;99.90;;;;;;4955794;28;96341;-33
2022/11/23 02:31:26;;;;;;;16.63;14.18;;;7.90;99.90;;;;;;4956510;28;92255;-32
2022/11/23 02:33:52;;;;;;;17.27;14.70;;;7.90;99.90;;;;;;4957474;28;93214;-32
2022/11/23 02:36:39;;;;;;;18.75;15.70;;;7.90;99.90;;;;;;4956248;28;96305;-32
2022/11/23 02:39:26;;;;;;;20.75;15.60;;;7.90;99.90;;;;;;4956610;28;94553;-33
2022/11/23 02:41:53;;;;;;;17.17;15.35;;;7.90;99.90;;;;;;4943259;28;92668;-32
2022/11/23 02:44:25;;;;;;;22.80;16.20;;;7.90;99.90;;;;;;4957239;28;93086;-36
2022/11/23 02:46:52;;;;;;;16.88;14.68;;;7.90;99.90;;;;;;4942700;28;95593;-33
2022/11/23 02:49:17;;;;;;;17.40;15.70;;;7.90;99.90;;;;;;4956602;28;95506;-35
2022/11/23 02:51:43;;;;;;;16.73;14.50;;;7.90;99.90;;;;;;4955650;28;94625;-33
2022/11/23 02:54:08;;;;;;;21.58;16.02;;;7.90;99.90;;;;;;4956701;28;94175;-34
2022/11/23 02:56:34;;;;;;;18.73;16.75;;;7.90;99.90;;;;;;4956356;28;94341;-33
2022/11/23 02:58:59;;;;;;;16.98;14.43;;;8.00;99.90;;;;;;4955665;28;94643;-33
2022/11/23 03:01:26;;;;;;;17.48;15.63;;;7.90;99.90;;;;;;4956979;28;94483;-33
2022/11/23 03:03:51;;;;;;;16.75;15.13;;;7.90;99.90;;;;;;4956710;28;91527;-32
2022/11/23 03:06:17;;;;;;;18.00;15.57;;;7.90;99.90;;;;;;4956614;28;94833;-33
2022/11/23 03:08:42;;;;;;;16.23;14.63;;;7.90;99.90;;;;;;4955744;28;96006;-33
2022/11/23 03:11:08;;;;;;;15.73;13.73;;;7.90;99.90;;;;;;4955917;28;94160;-34
2022/11/23 03:13:33;;;;;;;17.73;13.93;;;7.90;99.90;;;;;;4956283;28;93570;-32
2022/11/23 03:15:59;;;;;;;17.58;14.43;;;7.90;99.90;;;;;;4955768;28;94607;-34
2022/11/23 03:18:25;;;;;;;18.73;13.65;;;8.00;99.90;;;;;;4955708;28;95261;-33
2022/11/23 03:20:50;;;;;;;15.13;13.60;;;8.00;99.90;;;;;;4956244;28;93676;-34
2022/11/23 03:23:16;;;;;;;15.68;13.40;;;8.00;99.90;;;;;;4956658;28;92161;-33
2022/11/23 03:25:42;;;;;;;14.75;12.25;;;8.00;99.90;;;;;;4956853;28;95633;-33
2022/11/23 03:28:07;;;;;;;15.70;13.85;;;8.00;99.90;;;;;;4960104;28;94796;-33
2022/11/23 03:30:33;;;;;;;15.55;12.77;;;8.00;99.90;;;;;;4960362;28;93047;-32
2022/11/23 03:32:58;;;;;;;16.98;13.27;;;8.00;99.90;;;;;;4959122;28;92192;-34
2022/11/23 03:35:24;;;;;;;20.17;13.73;;;8.00;99.90;;;;;;4958178;28;95726;-35
2022/11/23 03:37:50;;;;;;;14.70;13.15;;;7.90;99.90;;;;;;4959218;28;95437;-34
2022/11/23 03:40:15;;;;;;;16.50;14.05;;;7.90;99.90;;;;;;4959512;28;93010;-33
2022/11/23 03:42:41;;;;;;;16.60;13.52;;;7.90;99.90;;;;;;4958810;28;92089;-33
2022/11/23 03:45:08;;;;;;;18.17;14.27;;;8.00;99.90;;;;;;4959142;28;94957;-33
2022/11/23 03:47:33;;;;;;;18.40;13.70;;;8.00;99.90;;;;;;4958886;28;94378;-32
2022/11/23 03:49:59;;;;;;;17.30;14.85;;;8.00;99.90;;;;;;4958703;28;93602;-33
2022/11/23 03:52:24;;;;;;;19.17;14.57;;;8.00;99.90;;;;;;4959683;28;92461;-31
2022/11/23 03:54:50;;;;;;;19.20;15.60;;;8.00;99.90;;;;;;4959208;28;95827;-33
2022/11/23 03:57:16;;;;;;;16.98;15.07;;;8.00;99.90;;;;;;4959773;28;95554;-33
2022/11/23 03:59:41;;;;;;;17.25;13.73;;;8.00;99.90;;;;;;4958602;28;94342;-32
2022/11/23 04:02:07;;;;;;;21.98;14.40;;;8.00;99.90;;;;;;4958970;28;92544;-34
2022/11/23 04:04:33;;;;;;;21.50;15.77;;;8.00;99.90;;;;;;4958899;28;94573;-33
2022/11/23 04:06:59;;;;;;;22.15;15.93;;;8.00;99.90;;;;;;4958435;28;94405;-36
2022/11/23 04:09:25;;;;;;;20.65;16.60;;;8.10;99.90;;;;;;4959128;28;94045;-33
2022/11/23 04:11:51;;;;;;;22.67;16.90;;;8.10;99.90;;;;;;4959148;28;93369;-33
2022/11/23 04:14:16;;;;;;;25.38;15.55;;;8.10;99.90;;;;;;4958041;28;94538;-33
2022/11/23 04:16:42;;;;;;;23.15;16.65;;;8.10;99.90;;;;;;4959035;28;94451;-34
2022/11/23 04:19:08;;;;;;;20.90;17.15;;;8.10;99.90;;;;;;4958678;28;92097;-33
2022/11/23 04:21:33;;;;;;;20.40;15.90;;;8.10;99.90;;;;;;4959026;28;94471;-32
2022/11/23 04:23:59;;;;;;;32.10;19.30;;;8.10;99.90;;;;;;4957409;28;95708;-34
2022/11/23 04:26:25;;;;;;;20.85;17.88;;;8.10;99.90;;;;;;4958545;28;95684;-33
2022/11/23 04:28:50;;;;;;;25.70;19.60;;;8.10;99.90;;;;;;4958829;28;93068;-33
2022/11/23 04:31:16;;;;;;;24.05;17.05;;;8.10;99.90;;;;;;4958163;28;94293;-32
2022/11/23 04:33:41;;;;;;;28.88;18.35;;;8.20;99.90;;;;;;4958695;28;94488;-34
2022/11/23 04:36:07;;;;;;;22.83;18.48;;;8.20;99.90;;;;;;4956572;28;94412;-35
2022/11/23 04:38:33;;;;;;;20.35;16.48;;;8.20;99.90;;;;;;4958509;28;92754;-31
2022/11/23 04:40:58;;;;;;;27.20;18.50;;;8.20;99.90;;;;;;4958643;28;94194;-33
2022/11/23 04:43:24;;;;;;;20.17;14.80;;;8.20;99.90;;;;;;4958391;28;95080;-32
2022/11/23 04:45:49;;;;;;;27.35;17.63;;;8.20;99.90;;;;;;4958651;28;94549;-32
2022/11/23 04:48:15;;;;;;;23.73;16.35;;;8.10;99.90;;;;;;4957362;28;93309;-31
2022/11/23 04:50:41;;;;;;;22.52;16.10;;;8.20;99.90;;;;;;4958498;28;94269;-33
2022/11/23 04:53:07;;;;;;;25.05;16.23;;;8.20;99.90;;;;;;4955985;28;94107;-33
2022/11/23 04:55:33;;;;;;;22.73;15.15;;;8.20;99.90;;;;;;4948632;28;94709;-33
2022/11/23 04:57:58;;;;;;;28.27;19.00;;;8.10;99.90;;;;;;4958164;28;92903;-34
2022/11/23 05:00:25;;;;;;;27.00;17.20;;;8.10;99.90;;;;;;4957393;28;92183;-33
2022/11/23 05:02:50;;;;;;;37.55;17.90;;;8.10;99.90;;;;;;4958587;28;94901;-33
2022/11/23 05:05:16;;;;;;;24.25;16.40;;;8.20;99.90;;;;;;4957628;28;95403;-33
2022/11/23 05:07:42;;;;;;;25.73;17.58;;;8.10;99.90;;;;;;4957969;28;93405;-33
2022/11/23 05:10:08;;;;;;;30.02;16.85;;;8.10;99.90;;;;;;4957891;28;92848;-32
2022/11/23 05:12:35;;;;;;;23.08;17.20;;;8.10;99.90;;;;;;4956936;28;95853;-31
2022/11/23 05:15:01;;;;;;;24.27;17.13;;;8.10;99.90;;;;;;4957401;28;96459;-33
2022/11/23 05:17:27;;;;;;;27.50;16.83;;;8.10;99.90;;;;;;4957589;28;94290;-34
2022/11/23 05:19:53;;;;;;;24.15;16.20;;;8.10;99.90;;;;;;4957883;28;93187;-32
2022/11/23 05:22:18;;;;;;;21.73;17.00;;;8.20;99.90;;;;;;4957752;28;94704;-35
2022/11/23 05:24:44;;;;;;;34.72;17.45;;;8.10;99.90;;;;;;4957209;28;95079;-33
2022/11/23 05:27:09;;;;;;;18.55;16.55;;;8.20;99.90;;;;;;4957485;28;93826;-34
2022/11/23 05:29:36;;;;;;;23.83;14.95;;;8.20;99.90;;;;;;4957626;28;92200;-33
2022/11/23 05:32:02;;;;;;;18.80;15.05;;;8.20;99.90;;;;;;4957490;28;94623;-34
2022/11/23 05:34:27;;;;;;;19.52;15.18;;;8.20;99.90;;;;;;4957763;28;94972;-32
2022/11/23 05:36:53;;;;;;;21.17;14.23;;;8.20;99.90;;;;;;4957043;28;95491;-33
2022/11/23 05:39:19;;;;;;;27.08;15.20;;;8.20;99.90;;;;;;4957922;28;94279;-32
2022/11/23 05:41:44;;;;;;;25.77;13.98;;;8.20;99.90;;;;;;4956711;28;95018;-35
2022/11/23 05:44:10;;;;;;;24.45;15.00;;;8.20;99.90;;;;;;4957311;28;94677;-34
2022/11/23 05:46:35;;;;;;;21.80;14.68;;;8.10;99.90;;;;;;4957085;28;94343;-34
2022/11/23 05:49:01;;;;;;;17.48;13.18;;;8.20;99.90;;;;;;4956639;28;93572;-33
2022/11/23 05:51:26;;;;;;;20.25;13.05;;;8.10;99.90;;;;;;4957288;28;94591;-32
2022/11/23 05:53:52;;;;;;;17.27;12.10;;;8.10;99.90;;;;;;4957923;28;94729;-32
2022/11/23 05:56:17;;;;;;;19.80;12.10;;;8.00;99.90;;;;;;4957873;28;94710;-33
2022/11/23 05:58:43;;;;;;;18.40;13.32;;;8.00;99.90;;;;;;4956852;28;93235;-34
2022/11/23 06:01:09;;;;;;;16.17;11.95;;;8.00;99.90;;;;;;4956592;28;95663;-36
2022/11/23 06:03:34;;;;;;;18.55;11.27;;;7.90;99.90;;;;;;4956913;28;94873;-34
2022/11/23 06:06:00;;;;;;;17.95;11.15;;;8.00;99.90;;;;;;4957427;28;94494;-35
2022/11/23 06:08:25;;;;;;;19.65;13.13;;;8.00;99.90;;;;;;4957125;28;93370;-32
2022/11/23 06:10:51;;;;;;;18.33;11.48;;;8.00;99.90;;;;;;4957066;28;94298;-33
2022/11/23 06:13:16;;;;;;;19.27;10.88;;;8.00;99.90;;;;;;4957251;28;94340;-33
2022/11/23 06:15:42;;;;;;;13.70;9.68;;;8.00;99.90;;;;;;4956314;28;93588;-32
2022/11/23 06:18:08;;;;;;;20.73;10.23;;;8.00;99.90;;;;;;4958711;28;92822;-32
2022/11/23 06:20:33;;;;;;;13.73;8.75;;;8.00;99.90;;;;;;4956759;28;94739;-34
2022/11/23 06:22:59;;;;;;;13.55;8.93;;;7.90;99.90;;;;;;4957533;28;94436;-35
2022/11/23 06:25:25;;;;;;;13.07;8.93;;;7.90;99.90;;;;;;4956906;28;93718;-32
2022/11/23 06:27:52;;;;;;;16.27;9.48;;;7.90;99.90;;;;;;4957168;28;94697;-32
2022/11/23 06:30:18;;;;;;;14.60;9.60;;;7.80;99.90;;;;;;4957097;28;95130;-33
2022/11/23 06:32:43;;;;;;;12.25;9.10;;;7.80;99.90;;;;;;4957426;28;95095;-33
2022/11/23 06:35:09;;;;;;;15.10;8.85;;;7.70;99.90;;;;;;4957256;28;93589;-34
2022/11/23 06:37:34;;;;;;;14.93;8.10;;;7.70;99.90;;;;;;4956903;28;93347;-35
2022/11/23 06:40:00;;;;;;;18.20;8.68;;;7.60;99.90;;;;;;4957239;28;94825;-32
2022/11/23 06:42:25;;;;;;;13.82;8.07;;;7.50;99.90;;;;;;4957424;28;94627;-33
2022/11/23 06:44:51;;;;;;;14.93;8.63;;;7.50;99.90;;;;;;4957078;28;94028;-34
2022/11/23 06:47:17;;;;;;;12.50;7.63;;;7.40;99.90;;;;;;4957019;28;93397;-34
2022/11/23 06:49:42;;;;;;;15.52;8.10;;;7.40;99.90;;;;;;4955980;28;96112;-34
2022/11/23 06:52:08;;;;;;;12.25;9.13;;;7.40;99.90;;;;;;4957058;28;95350;-34
2022/11/23 06:54:34;;;;;;;20.13;8.25;;;7.40;99.90;;;;;;4957293;28;94688;-33
2022/11/23 06:56:59;;;;;;;13.95;7.57;;;7.30;99.90;;;;;;4956871;28;92582;-33
2022/11/23 06:59:25;;;;;;;11.48;7.88;;;7.20;99.90;;;;;;4955823;28;95197;-33
2022/11/23 07:01:50;;;;;;;16.23;8.15;;;7.20;99.90;;;;;;4956408;28;94239;-35
2022/11/23 07:04:16;;;;;;;11.40;8.05;;;7.20;99.90;;;;;;4957005;28;94397;-33
2022/11/23 07:06:42;;;;;;;17.58;8.95;;;7.20;99.90;;;;;;4957085;28;92556;-32
2022/11/23 07:09:08;;;;;;;16.30;9.32;;;7.20;99.90;;;;;;4956210;28;94903;-33
2022/11/23 07:11:34;;;;;;;15.73;8.55;;;7.20;99.90;;;;;;4956862;28;94548;-32
2022/11/23 07:13:59;;;;;;;13.07;8.45;;;7.10;99.90;;;;;;4956602;28;95440;-31
2022/11/23 07:16:25;;;;;;;15.23;9.05;;;7.10;99.90;;;;;;4956772;28;94207;-36
2022/11/23 07:18:51;;;;;;;16.63;8.40;;;7.10;99.90;;;;;;4956700;28;94802;-33
2022/11/23 07:21:16;;;;;;;15.48;8.80;;;7.20;99.90;;;;;;4956708;28;93877;-33
2022/11/23 07:23:42;;;;;;;14.10;8.93;;;7.20;99.90;;;;;;4957117;28;94090;-32
2022/11/23 07:26:08;;;;;;;13.70;8.98;;;7.20;99.90;;;;;;4956301;28;93122;-32
2022/11/23 07:28:34;;;;;;;12.40;9.50;;;7.20;99.90;;;;;;4956790;28;94749;-34
2022/11/23 07:30:59;;;;;;;16.25;10.02;;;7.20;99.90;;;;;;4956011;28;94715;-33
2022/11/23 07:33:25;;;;;;;17.00;9.00;;;7.20;99.90;;;;;;4956236;28;92753;-32
2022/11/23 07:35:50;;;;;;;11.35;8.20;;;7.20;99.90;;;;;;4957233;28;92229;-34
2022/11/23 07:38:16;;;;;;;13.43;8.05;;;7.20;99.90;;;;;;4955773;28;96417;-33
2022/11/23 07:40:42;;;;;;;11.15;8.73;;;7.20;99.90;;;;;;4955676;28;96141;-33
2022/11/23 07:43:07;;;;;;;16.02;8.70;;;7.30;99.90;;;;;;4955935;28;93610;-34
2022/11/23 07:45:35;;;;;;;13.77;8.48;;;7.30;99.90;;;;;;4956571;28;93092;-33
2022/11/23 07:48:04;;;;;;;11.65;8.25;;;7.30;99.90;;;;;;4956967;28;94302;-33
2022/11/23 07:50:29;;;;;;;;;;;7.40;99.90;;;;;;4956321;28;97383;-33
2022/11/23 07:52:55;;;;;;;14.38;8.27;;;7.40;99.90;;;;;;4957152;28;94480;-34
2022/11/23 07:55:21;;;;;;;15.05;8.52;;;7.40;99.90;;;;;;4955782;28;92612;-33
2022/11/23 07:57:50;;;;;;;11.98;7.13;;;7.50;99.90;;;;;;4955435;28;94545;-32
2022/11/23 08:00:16;;;;;;;7.93;7.03;;;7.50;99.90;;;;;;4955611;28;94751;-34
2022/11/23 08:02:41;;;;;;;15.23;7.90;;;7.60;99.90;;;;;;4959818;28;93493;-32
2022/11/23 08:05:07;;;;;;;18.65;8.05;;;7.70;99.90;;;;;;4953268;28;92890;-34
2022/11/23 08:07:33;;;;;;;12.80;8.32;;;7.60;99.90;;;;;;4953779;28;95854;-32
2022/11/23 08:09:58;;;;;;;14.73;7.43;;;7.60;99.90;;;;;;4953583;28;94596;-35
2022/11/23 08:12:24;;;;;;;17.40;8.57;;;7.70;99.90;;;;;;4955959;28;92256;-35
2022/11/23 08:14:49;;;;;;;13.32;7.65;;;7.70;99.90;;;;;;4949061;28;93091;-33
2022/11/23 08:17:15;;;;;;;11.40;7.53;;;7.70;99.90;;;;;;4955215;28;95975;-34
2022/11/23 08:19:40;;;;;;;10.30;6.82;;;7.80;99.90;;;;;;4957088;28;94574;-32
2022/11/23 08:22:06;;;;;;;14.15;8.20;;;7.80;99.90;;;;;;4957936;28;93192;-33
2022/11/23 08:24:32;;;;;;;15.82;8.52;;;7.80;99.90;;;;;;4956648;28;93088;-31
2022/11/23 08:26:57;;;;;;;7.80;5.97;;;7.90;99.90;;;;;;4957537;28;95682;-35
2022/11/23 08:29:23;;;;;;;13.55;7.35;;;7.90;99.90;;;;;;4956272;28;95149;-34
2022/11/23 08:31:49;;;;;;;13.25;8.43;;;7.90;99.90;;;;;;4957601;28;93397;-34
2022/11/23 08:34:16;;;;;;;11.73;7.22;;;7.90;99.90;;;;;;4957171;28;93972;-35
2022/11/23 08:36:42;;;;;;;14.77;8.27;;;8.00;99.90;;;;;;4956400;28;93765;-33
2022/11/23 08:39:09;;;;;;;16.75;7.60;;;8.00;99.90;;;;;;4956466;28;94453;-33
2022/11/23 08:41:38;;;;;;;10.47;7.63;;;8.00;99.90;;;;;;4956269;28;92976;-34
2022/11/23 08:44:04;;;;;;;;;;;8.10;99.90;;;;;;4957780;28;93275;-33
2022/11/23 08:46:29;;;;;;;18.85;8.20;;;8.10;99.90;;;;;;4957851;28;95173;-33
2022/11/23 08:48:55;;;;;;;11.77;7.60;;;8.10;99.90;;;;;;4955944;28;93359;-34
2022/11/23 08:51:23;;;;;;;16.75;8.07;;;8.20;99.90;;;;;;4955613;28;94128;-35
2022/11/23 08:53:49;;;;;;;12.32;7.80;;;8.20;99.90;;;;;;4956499;28;93963;-35
2022/11/23 08:56:16;;;;;;;14.43;7.85;;;8.20;99.90;;;;;;4956388;28;95328;-32
2022/11/23 08:58:41;;;;;;;15.00;7.45;;;8.20;99.90;;;;;;4955547;28;94655;-31
2022/11/23 09:01:12;;;;;;;20.30;7.07;;;8.30;99.90;;;;;;4957321;28;94405;-35
2022/11/23 09:03:38;;;;;;;15.60;7.55;;;8.30;99.90;;;;;;4956483;28;93135;-34
2022/11/23 09:06:04;;;;;;;15.77;7.55;;;8.40;99.90;;;;;;4955469;28;94456;-35
2022/11/23 09:08:30;;;;;;;14.35;7.57;;;8.40;99.90;;;;;;4955365;28;95082;-33
2022/11/23 09:11:03;;;;;;;10.60;7.20;;;8.60;99.90;;;;;;4956458;28;93562;-35
2022/11/23 09:13:29;;;;;;;14.75;7.68;;;8.60;99.90;;;;;;4955789;28;93077;-33
2022/11/23 09:15:59;;;;;;;10.68;6.78;;;8.70;99.90;;;;;;4990857;22;95622;-33
2022/11/23 09:18:26;;;;;;;10.15;7.40;;;8.70;99.90;;;;;;4954889;28;93933;-33
2022/11/23 09:20:52;;;;;;;15.13;7.80;;;8.80;99.90;;;;;;4956029;28;93992;-34
2022/11/23 09:23:17;;;;;;;18.95;7.93;;;8.90;99.90;;;;;;4959095;28;94078;-35
2022/11/23 09:25:47;;;;;;;11.50;6.80;;;8.90;99.90;;;;;;4955097;28;94959;-33
2022/11/23 09:28:13;;;;;;;11.65;7.35;;;9.00;99.90;;;;;;4956070;28;94552;-32
2022/11/23 09:30:40;;;;;;;18.52;6.15;;;9.00;99.90;;;;;;4955304;28;93488;-35
2022/11/23 09:33:07;;;;;;;13.07;7.38;;;9.00;99.90;;;;;;4955903;28;93397;-33
2022/11/23 09:35:33;;;;;;;12.02;6.13;;;9.10;99.90;;;;;;4955652;28;95786;-32
2022/11/23 09:37:59;;;;;;;11.05;6.05;;;9.00;99.90;;;;;;4955311;28;94580;-35
2022/11/23 09:40:29;;;;;;;12.32;5.88;;;9.00;99.90;;;;;;4955692;28;93884;-34
2022/11/23 09:43:07;;;;;;;12.07;5.43;;;9.00;99.90;;;;;;4955926;28;93709;-34
2022/11/23 09:45:53;;;;;;;9.32;5.35;;;8.90;99.90;;;;;;4955690;28;94928;-34
2022/11/23 09:48:31;;;;;;;12.73;5.30;;;8.90;99.90;;;;;;4955517;28;94412;-34
2022/11/23 09:51:05;;;;;;;18.48;7.05;;;8.90;99.90;;;;;;4956362;28;94144;-31
2022/11/23 09:54:23;;;;;;;11.35;4.80;;;8.90;99.90;;;;;;4955418;28;92631;-33
2022/11/23 09:56:52;;;;;;;14.18;6.32;;;8.90;99.90;;;;;;4950737;28;94570;-32
2022/11/23 09:59:34;;;;;;;18.35;6.47;;;9.00;99.90;;;;;;4955225;28;93352;-35
2022/11/23 10:02:00;;;;;;;13.82;6.38;;;9.00;99.90;;;;;;4956005;28;92711;-33
2022/11/23 10:04:32;;;;;;;16.80;6.95;;;9.00;99.90;;;;;;4955035;28;94401;-35
2022/11/23 10:07:22;;;;;;;11.95;5.63;;;9.00;99.90;;;;;;4954355;28;95673;-33
2022/11/23 10:10:47;;;;;;;11.13;6.03;;;9.00;99.90;;;;;;4954876;28;96899;-34
2022/11/23 10:13:29;;;;;;;12.05;7.65;;;9.00;99.90;;;;;;4905670;28;94690;-32
2022/11/23 10:16:10;;;;;;;14.07;5.20;;;9.00;99.90;;;;;;4955389;28;94434;-35
2022/11/23 10:18:57;;;;;;;12.57;6.05;;;9.00;99.90;;;;;;4954455;28;94855;-34
2022/11/23 10:21:53;;;;;;;15.18;6.00;;;9.00;99.90;;;;;;4954927;28;94338;-34
2022/11/23 10:24:30;;;;;;;8.88;5.82;;;9.10;99.90;;;;;;4956174;28;93073;-35
2022/11/23 10:26:56;;;;;;;14.48;5.47;;;9.10;99.90;;;;;;4955750;28;92614;-34
2022/11/23 10:29:30;;;;;;;18.10;5.38;;;9.10;99.90;;;;;;4955127;28;94634;-34
2022/11/23 10:31:57;;;;;;;14.43;6.00;;;9.10;99.90;;;;;;4954934;28;93683;-34
2022/11/23 10:34:50;;;;;;;10.88;5.05;;;9.10;99.90;;;;;;4953876;28;93112;-34
2022/11/23 10:37:17;;;;;;;12.90;4.82;;;9.10;99.90;;;;;;4918592;28;93645;-34
2022/11/23 10:39:42;;;;;;;14.57;5.90;;;9.00;99.90;;;;;;4955621;28;94773;-34
2022/11/23 10:42:24;;;;;;;12.75;4.85;;;9.00;99.90;;;;;;4955189;28;94687;-33
2022/11/23 10:44:51;;;;;;;8.13;4.75;;;8.90;99.90;;;;;;4954384;28;94441;-32
2022/11/23 10:47:40;;;;;;;19.55;6.18;;;8.80;99.90;;;;;;4954815;28;93974;-33
2022/11/23 10:50:19;;;;;;;;;;;8.80;99.90;;;;;;4955435;28;94557;-33
2022/11/23 10:53:12;;;;;;;11.23;5.65;;;8.80;99.90;;;;;;4949834;28;94689;-34
2022/11/23 10:55:53;;;;;;;22.63;5.57;;;8.80;99.90;;;;;;4942149;28;93684;-33
2022/11/23 10:58:30;;;;;;;18.15;6.05;;;8.80;99.90;;;;;;4954455;28;93137;-34
2022/11/23 11:01:00;;;;;;;13.85;5.35;;;8.90;99.90;;;;;;4952388;28;96897;-35
2022/11/23 11:03:31;;;;;;;15.50;5.70;;;8.90;99.90;;;;;;4955380;28;95132;-33
2022/11/23 11:05:57;;;;;;;12.57;5.63;;;9.00;99.90;;;;;;4955056;28;93646;-33
2022/11/23 11:08:29;;;;;;;13.00;4.93;;;9.10;99.90;;;;;;4954500;28;93117;-35
2022/11/23 11:11:27;;;;;;;12.20;4.93;;;9.10;99.90;;;;;;4957889;28;94730;-36
2022/11/23 11:14:14;;;;;;;12.68;4.70;;;9.30;99.90;;;;;;4949612;28;94888;-34
2022/11/23 11:16:47;;;;;;;11.85;4.65;;;9.60;99.90;;;;;;4954761;28;93768;-34
2022/11/23 11:19:39;;;;;;;21.35;5.15;;;9.80;99.90;;;;;;4955295;28;93866;-35
2022/11/23 11:22:24;;;;;;;11.80;4.72;;;9.90;99.90;;;;;;4951732;28;94827;-32
2022/11/23 11:24:50;;;;;;;12.40;3.95;;;10.10;99.90;;;;;;4954521;28;95043;-32
2022/11/23 11:27:21;;;;;;;9.70;3.85;;;10.20;99.90;;;;;;4954146;28;93985;-32
2022/11/23 11:29:56;;;;;;;12.23;4.60;;;10.20;99.90;;;;;;4954499;28;93007;-34
2022/11/23 11:32:45;;;;;;;12.57;3.63;;;10.30;99.90;;;;;;4952294;28;94286;-34
2022/11/23 11:35:23;;;;;;;13.35;4.78;;;10.40;99.90;;;;;;4947685;28;95358;-32
2022/11/23 11:37:51;;;;;;;13.00;4.25;;;10.40;99.90;;;;;;4954863;28;93044;-34
2022/11/23 11:40:45;;;;;;;11.65;4.13;;;10.40;99.90;;;;;;4953891;28;93122;-33
2022/11/23 11:43:28;;;;;;;14.55;4.40;;;10.50;99.90;;;;;;4955460;28;94385;-35
2022/11/23 11:45:59;;;;;;;11.52;3.90;;;10.60;99.90;;;;;;4953454;28;94224;-33
2022/11/23 11:48:47;;;;;;;12.45;4.70;;;10.60;99.90;;;;;;4956004;28;93249;-33
2022/11/23 11:51:38;;;;;;;8.10;2.58;;;10.70;99.90;;;;;;4952472;28;94426;-32
2022/11/23 11:54:10;;;;;;;9.93;3.17;;;10.80;99.90;;;;;;4956863;28;95870;-32
2022/11/23 11:56:45;;;;;;;8.23;4.07;;;10.80;99.90;;;;;;4953243;28;95629;-33
2022/11/23 11:59:25;;;;;;;12.27;4.38;;;10.80;99.90;;;;;;4956854;28;94561;-34
2022/11/23 12:02:24;;;;;;;11.27;3.65;;;10.90;99.90;;;;;;4956746;28;94157;-34
2022/11/23 12:05:14;;;;;;;10.48;3.63;;;10.90;99.90;;;;;;4956598;28;94725;-33
2022/11/23 12:08:09;;;;;;;8.27;3.65;;;11.00;99.90;;;;;;4956307;28;94498;-35
2022/11/23 12:10:45;;;;;;;7.78;3.85;;;11.10;99.90;;;;;;4950659;28;94279;-33
2022/11/23 12:13:23;;;;;;;10.75;4.40;;;11.10;99.90;;;;;;4957036;28;93721;-35
2022/11/23 12:16:28;;;;;;;11.02;5.63;;;11.20;99.90;;;;;;4955835;28;95280;-33
2022/11/23 12:19:16;;;;;;;8.70;3.75;;;11.20;99.90;;;;;;4955563;28;94950;-34
2022/11/23 12:21:48;;;;;;;;;;;11.30;99.90;;;;;;4956989;28;94812;-33
2022/11/23 12:24:34;;;;;;;9.27;3.65;;;11.30;99.90;;;;;;4958225;28;94196;-36
2022/11/23 12:27:20;;;;;;;7.68;3.25;;;11.20;99.90;;;;;;4952340;28;95725;-32
2022/11/23 12:30:00;;;;;;;10.60;3.90;;;11.20;99.90;;;;;;4925461;28;94496;-33
2022/11/23 12:32:50;;;;;;;7.30;3.35;;;11.20;99.90;;;;;;4956622;28;93559;-33
2022/11/23 12:35:38;;;;;;;7.78;3.25;;;11.10;99.90;;;;;;4956811;28;94186;-33
2022/11/23 12:38:22;;;;;;;9.23;3.88;;;11.00;99.90;;;;;;4956575;28;95223;-32
2022/11/23 12:41:21;;;;;;;5.20;3.60;;;11.00;99.90;;;;;;4956285;28;94212;-33
2022/11/23 12:43:58;;;;;;;11.90;3.75;;;11.00;99.90;;;;;;4956700;28;94201;-33
2022/11/23 12:46:39;;;;;;;7.68;3.88;;;10.90;99.90;;;;;;4953944;28;93453;-36
2022/11/23 12:49:13;;;;;;;7.90;3.80;;;10.80;99.90;;;;;;4955825;28;95539;-34
2022/11/23 12:51:43;;;;;;;7.60;3.78;;;10.80;99.90;;;;;;4955579;28;93940;-33
2022/11/23 12:54:15;;;;;;;7.00;2.72;;;10.80;99.90;;;;;;4956077;28;93785;-33
2022/11/23 12:57:03;;;;;;;7.20;3.00;;;10.80;99.90;;;;;;4954484;28;94599;-33